sensor_id;sensor_type;location;lat;lon;timestamp;temperature;humidity
23323;DHT22;11833;52.554;13.554;2023-04-01T00:01:11;9.60;99.90
23323;DHT22;11833;52.554;13.554;2023-04-01T00:03:41;9.60;99.90
23323;DHT22;11833;52.554;13.554;2023-04-01T00:06:09;9.50;99.90
23323;DHT22;11833;52.554;13.554;2023-04-01T00:08:34;9.50;99.90
23323;DHT22;11833;52.554;13.554;2023-04-01T00:11:00;9.40;99.90
23323;DHT22;11833;52.554;13.554;2023-04-01T00:13:26;9.40;99.90
23323;DHT22;11833;52.554;13.554;2023-04-01T00:15:53;9.40;99.90
23323;DHT22;11833;52.554;13.554;2023-04-01T00:18:20;9.40;99.90
23323;DHT22;11833;52.554;13.554;2023-04-01T00:20:47;9.40;99.90
23323;DHT22;11833;52.554;13.554;2023-04-01T00:23:15;9.30;99.90
23323;DHT22;11833;52.554;13.554;2023-04-01T00:25:41;9.40;99.90
23323;DHT22;11833;52.554;13.554;2023-04-01T00:28:07;9.50;99.90
23323;DHT22;11833;52.554;13.554;2023-04-01T00:30:33;9.40;99.90
23323;DHT22;11833;52.554;13.554;2023-04-01T00:33:07;9.30;99.90
23323;DHT22;11833;52.554;13.554;2023-04-01T00:35:33;9.30;99.90
23323;DHT22;11833;52.554;13.554;2023-04-01T00:38:00;9.20;99.90
23323;DHT22;11833;52.554;13.554;2023-04-01T00:40:31;9.20;99.90
23323;DHT22;11833;52.554;13.554;2023-04-01T00:42:59;9.20;99.90
23323;DHT22;11833;52.554;13.554;2023-04-01T00:45:36;9.30;99.90
23323;DHT22;11833;52.554;13.554;2023-04-01T00:48:15;9.30;99.90
23323;DHT22;11833;52.554;13.554;2023-04-01T00:50:50;9.30;99.90
23323;DHT22;11833;52.554;13.554;2023-04-01T00:53:19;9.20;99.90
23323;DHT22;11833;52.554;13.554;2023-04-01T00:55:54;9.20;99.90
23323;DHT22;11833;52.554;13.554;2023-04-01T00:58:24;9.20;99.90
23323;DHT22;11833;52.554;13.554;2023-04-01T01:00:53;9.30;99.90
23323;DHT22;11833;52.554;13.554;2023-04-01T01:03:20;9.30;99.90
23323;DHT22;11833;52.554;13.554;2023-04-01T01:12:13;9.30;99.90
23323;DHT22;11833;52.554;13.554;2023-04-01T01:15:15;9.30;99.90
23323;DHT22;11833;52.554;13.554;2023-04-01T01:27:07;9.20;99.90
23323;DHT22;11833;52.554;13.554;2023-04-01T01:32:57;9.20;99.90
23323;DHT22;11833;52.554;13.554;2023-04-01T01:35:38;9.30;99.90
23323;DHT22;11833;52.554;13.554;2023-04-01T01:38:35;9.30;99.90
23323;DHT22;11833;52.554;13.554;2023-04-01T01:41:04;9.30;99.90
23323;DHT22;11833;52.554;13.554;2023-04-01T01:43:39;9.30;99.90
23323;DHT22;11833;52.554;13.554;2023-04-01T01:46:12;9.20;99.90
23323;DHT22;11833;52.554;13.554;2023-04-01T01:48:42;9.30;99.90
23323;DHT22;11833;52.554;13.554;2023-04-01T01:51:08;9.20;99.90
23323;DHT22;11833;52.554;13.554;2023-04-01T01:53:34;9.30;99.90
23323;DHT22;11833;52.554;13.554;2023-04-01T01:56:00;9.30;99.90
23323;DHT22;11833;52.554;13.554;2023-04-01T01:58:42;9.20;99.90
23323;DHT22;11833;52.554;13.554;2023-04-01T02:01:20;9.20;99.90
23323;DHT22;11833;52.554;13.554;2023-04-01T02:03:50;9.30;99.90
23323;DHT22;11833;52.554;13.554;2023-04-01T02:06:19;9.30;99.90
23323;DHT22;11833;52.554;13.554;2023-04-01T02:08:57;9.30;99.90
23323;DHT22;11833;52.554;13.554;2023-04-01T02:11:50;9.30;99.90
23323;DHT22;11833;52.554;13.554;2023-04-01T02:15:06;9.30;99.90
23323;DHT22;11833;52.554;13.554;2023-04-01T02:17:34;9.30;99.90
23323;DHT22;11833;52.554;13.554;2023-04-01T02:20:11;9.20;99.90
23323;DHT22;11833;52.554;13.554;2023-04-01T02:22:44;9.30;99.90
23323;DHT22;11833;52.554;13.554;2023-04-01T02:25:17;9.40;99.90
23323;DHT22;11833;52.554;13.554;2023-04-01T02:27:54;9.30;99.90
23323;DHT22;11833;52.554;13.554;2023-04-01T02:30:23;9.40;99.90
23323;DHT22;11833;52.554;13.554;2023-04-01T02:32:51;9.40;99.90
23323;DHT22;11833;52.554;13.554;2023-04-01T02:35:18;9.40;99.90
23323;DHT22;11833;52.554;13.554;2023-04-01T02:37:45;9.40;99.90
23323;DHT22;11833;52.554;13.554;2023-04-01T02:40:15;9.40;99.90
23323;DHT22;11833;52.554;13.554;2023-04-01T02:42:42;9.40;99.90
23323;DHT22;11833;52.554;13.554;2023-04-01T02:45:09;9.40;99.90
23323;DHT22;11833;52.554;13.554;2023-04-01T02:47:35;9.40;99.90
23323;DHT22;11833;52.554;13.554;2023-04-01T02:50:01;9.50;99.90
23323;DHT22;11833;52.554;13.554;2023-04-01T02:52:30;9.50;99.90
23323;DHT22;11833;52.554;13.554;2023-04-01T02:54:56;9.40;99.90
23323;DHT22;11833;52.554;13.554;2023-04-01T02:57:22;9.30;99.90
23323;DHT22;11833;52.554;13.554;2023-04-01T02:59:49;9.40;99.90
23323;DHT22;11833;52.554;13.554;2023-04-01T03:02:15;9.40;99.90
23323;DHT22;11833;52.554;13.554;2023-04-01T03:04:41;9.40;99.90
23323;DHT22;11833;52.554;13.554;2023-04-01T03:07:07;9.50;99.90
23323;DHT22;11833;52.554;13.554;2023-04-01T03:09:36;9.50;99.90
23323;DHT22;11833;52.554;13.554;2023-04-01T03:12:02;9.50;99.90
23323;DHT22;11833;52.554;13.554;2023-04-01T03:14:28;9.50;99.90
23323;DHT22;11833;52.554;13.554;2023-04-01T03:16:54;9.50;99.90
23323;DHT22;11833;52.554;13.554;2023-04-01T03:19:20;9.40;99.90
23323;DHT22;11833;52.554;13.554;2023-04-01T03:21:46;9.40;99.90
23323;DHT22;11833;52.554;13.554;2023-04-01T03:24:11;9.40;99.90
23323;DHT22;11833;52.554;13.554;2023-04-01T03:26:40;9.40;99.90
23323;DHT22;11833;52.554;13.554;2023-04-01T03:29:06;9.40;99.90
23323;DHT22;11833;52.554;13.554;2023-04-01T03:31:32;9.40;99.90
23323;DHT22;11833;52.554;13.554;2023-04-01T03:33:57;9.30;99.90
23323;DHT22;11833;52.554;13.554;2023-04-01T03:36:23;9.30;99.90
23323;DHT22;11833;52.554;13.554;2023-04-01T03:38:49;9.30;99.90
23323;DHT22;11833;52.554;13.554;2023-04-01T03:41:16;9.30;99.90
23323;DHT22;11833;52.554;13.554;2023-04-01T03:43:43;9.30;99.90
23323;DHT22;11833;52.554;13.554;2023-04-01T03:46:09;9.40;99.90
23323;DHT22;11833;52.554;13.554;2023-04-01T03:48:35;9.40;99.90
23323;DHT22;11833;52.554;13.554;2023-04-01T03:51:01;9.40;99.90
23323;DHT22;11833;52.554;13.554;2023-04-01T03:53:27;9.30;99.90
23323;DHT22;11833;52.554;13.554;2023-04-01T03:55:53;9.40;99.90
23323;DHT22;11833;52.554;13.554;2023-04-01T03:58:19;9.40;99.90
23323;DHT22;11833;52.554;13.554;2023-04-01T04:00:45;9.40;99.90
23323;DHT22;11833;52.554;13.554;2023-04-01T04:03:11;9.40;99.90
23323;DHT22;11833;52.554;13.554;2023-04-01T04:05:37;9.40;99.90
23323;DHT22;11833;52.554;13.554;2023-04-01T04:08:03;9.40;99.90
23323;DHT22;11833;52.554;13.554;2023-04-01T04:10:29;9.30;99.90
23323;DHT22;11833;52.554;13.554;2023-04-01T04:12:55;9.40;99.90
23323;DHT22;11833;52.554;13.554;2023-04-01T04:15:22;9.40;99.90
23323;DHT22;11833;52.554;13.554;2023-04-01T04:17:48;9.40;99.90
23323;DHT22;11833;52.554;13.554;2023-04-01T04:20:14;9.50;99.90
23323;DHT22;11833;52.554;13.554;2023-04-01T04:22:40;9.50;99.90
23323;DHT22;11833;52.554;13.554;2023-04-01T04:25:06;9.50;99.90
23323;DHT22;11833;52.554;13.554;2023-04-01T04:27:33;9.50;99.90
23323;DHT22;11833;52.554;13.554;2023-04-01T04:29:59;9.50;99.90
23323;DHT22;11833;52.554;13.554;2023-04-01T04:32:25;9.50;99.90
23323;DHT22;11833;52.554;13.554;2023-04-01T04:34:51;9.50;99.90
23323;DHT22;11833;52.554;13.554;2023-04-01T04:37:16;9.50;99.90
23323;DHT22;11833;52.554;13.554;2023-04-01T04:39:42;9.50;99.90
23323;DHT22;11833;52.554;13.554;2023-04-01T04:42:08;9.50;99.90
23323;DHT22;11833;52.554;13.554;2023-04-01T04:44:33;9.50;99.90
23323;DHT22;11833;52.554;13.554;2023-04-01T04:46:59;9.40;99.90
23323;DHT22;11833;52.554;13.554;2023-04-01T04:49:25;9.40;99.90
23323;DHT22;11833;52.554;13.554;2023-04-01T04:51:51;9.50;99.90
23323;DHT22;11833;52.554;13.554;2023-04-01T04:54:17;9.50;99.90
23323;DHT22;11833;52.554;13.554;2023-04-01T04:56:43;9.50;99.90
23323;DHT22;11833;52.554;13.554;2023-04-01T04:59:09;9.50;99.90
23323;DHT22;11833;52.554;13.554;2023-04-01T05:01:34;9.50;99.90
23323;DHT22;11833;52.554;13.554;2023-04-01T05:04:00;9.50;99.90
23323;DHT22;11833;52.554;13.554;2023-04-01T05:06:26;9.50;99.90
23323;DHT22;11833;52.554;13.554;2023-04-01T05:08:55;9.50;99.90
23323;DHT22;11833;52.554;13.554;2023-04-01T05:11:21;9.40;99.90
23323;DHT22;11833;52.554;13.554;2023-04-01T05:13:47;9.50;99.90
23323;DHT22;11833;52.554;13.554;2023-04-01T05:16:19;9.50;99.90
23323;DHT22;11833;52.554;13.554;2023-04-01T05:18:46;9.60;99.90
23323;DHT22;11833;52.554;13.554;2023-04-01T05:21:13;9.60;99.90
23323;DHT22;11833;52.554;13.554;2023-04-01T05:23:40;9.60;99.90
23323;DHT22;11833;52.554;13.554;2023-04-01T05:26:10;9.60;99.90
23323;DHT22;11833;52.554;13.554;2023-04-01T05:28:37;9.60;99.90
23323;DHT22;11833;52.554;13.554;2023-04-01T05:31:05;9.60;99.90
23323;DHT22;11833;52.554;13.554;2023-04-01T05:33:31;9.60;99.90
23323;DHT22;11833;52.554;13.554;2023-04-01T05:36:04;9.60;99.90
23323;DHT22;11833;52.554;13.554;2023-04-01T05:38:31;9.60;99.90
23323;DHT22;11833;52.554;13.554;2023-04-01T05:41:01;9.60;99.90
23323;DHT22;11833;52.554;13.554;2023-04-01T05:43:27;9.60;99.90
23323;DHT22;11833;52.554;13.554;2023-04-01T05:45:54;9.50;99.90
23323;DHT22;11833;52.554;13.554;2023-04-01T05:48:20;9.60;99.90
23323;DHT22;11833;52.554;13.554;2023-04-01T05:50:46;9.60;99.90
23323;DHT22;11833;52.554;13.554;2023-04-01T05:53:12;9.60;99.90
23323;DHT22;11833;52.554;13.554;2023-04-01T05:55:37;9.60;99.90
23323;DHT22;11833;52.554;13.554;2023-04-01T05:58:03;9.70;99.90
23323;DHT22;11833;52.554;13.554;2023-04-01T06:00:29;9.70;99.90
23323;DHT22;11833;52.554;13.554;2023-04-01T06:02:58;9.80;99.90
23323;DHT22;11833;52.554;13.554;2023-04-01T06:05:28;9.80;99.90
23323;DHT22;11833;52.554;13.554;2023-04-01T06:08:00;9.80;99.90
23323;DHT22;11833;52.554;13.554;2023-04-01T06:15:53;9.80;99.90
23323;DHT22;11833;52.554;13.554;2023-04-01T06:18:53;9.80;99.90
23323;DHT22;11833;52.554;13.554;2023-04-01T06:21:37;9.90;99.90
23323;DHT22;11833;52.554;13.554;2023-04-01T06:24:53;9.90;99.90
23323;DHT22;11833;52.554;13.554;2023-04-01T06:30:42;10.00;99.90
23323;DHT22;11833;52.554;13.554;2023-04-01T06:33:23;9.90;99.90
23323;DHT22;11833;52.554;13.554;2023-04-01T06:52:39;9.90;99.90
23323;DHT22;11833;52.554;13.554;2023-04-01T06:58:05;9.90;99.90
23323;DHT22;11833;52.554;13.554;2023-04-01T07:00:49;10.00;99.90
23323;DHT22;11833;52.554;13.554;2023-04-01T07:06:28;9.90;99.90
23323;DHT22;11833;52.554;13.554;2023-04-01T07:09:04;10.00;99.90
23323;DHT22;11833;52.554;13.554;2023-04-01T07:11:34;10.10;99.90
23323;DHT22;11833;52.554;13.554;2023-04-01T07:14:06;10.10;99.90
23323;DHT22;11833;52.554;13.554;2023-04-01T07:16:43;10.20;99.90
23323;DHT22;11833;52.554;13.554;2023-04-01T07:19:34;10.20;99.90
23323;DHT22;11833;52.554;13.554;2023-04-01T07:24:44;10.20;99.90
23323;DHT22;11833;52.554;13.554;2023-04-01T07:27:13;10.30;99.90
23323;DHT22;11833;52.554;13.554;2023-04-01T07:29:39;10.30;99.90
23323;DHT22;11833;52.554;13.554;2023-04-01T07:46:36;10.30;99.90
23323;DHT22;11833;52.554;13.554;2023-04-01T07:49:36;10.30;99.90
23323;DHT22;11833;52.554;13.554;2023-04-01T07:52:35;10.40;99.90
23323;DHT22;11833;52.554;13.554;2023-04-01T07:55:39;10.40;99.90
23323;DHT22;11833;52.554;13.554;2023-04-01T08:03:56;10.40;99.90
23323;DHT22;11833;52.554;13.554;2023-04-01T08:06:45;10.40;99.90
23323;DHT22;11833;52.554;13.554;2023-04-01T08:22:51;10.30;99.90
23323;DHT22;11833;52.554;13.554;2023-04-01T08:25:26;10.40;99.90
23323;DHT22;11833;52.554;13.554;2023-04-01T08:30:52;10.60;99.90
23323;DHT22;11833;52.554;13.554;2023-04-01T08:33:30;10.60;99.90
23323;DHT22;11833;52.554;13.554;2023-04-01T08:36:12;10.60;99.90
23323;DHT22;11833;52.554;13.554;2023-04-01T09:35:05;10.30;99.90
23323;DHT22;11833;52.554;13.554;2023-04-01T09:38:17;10.20;99.90
23323;DHT22;11833;52.554;13.554;2023-04-01T09:41:02;10.10;99.90
23323;DHT22;11833;52.554;13.554;2023-04-01T09:43:58;10.10;99.90
23323;DHT22;11833;52.554;13.554;2023-04-01T09:46:56;9.90;99.90
23323;DHT22;11833;52.554;13.554;2023-04-01T09:55:26;10.30;99.90
23323;DHT22;11833;52.554;13.554;2023-04-01T09:58:51;10.30;99.90
23323;DHT22;11833;52.554;13.554;2023-04-01T10:10:30;10.00;99.90
23323;DHT22;11833;52.554;13.554;2023-04-01T10:13:05;10.20;99.90
23323;DHT22;11833;52.554;13.554;2023-04-01T10:21:56;10.20;99.90
23323;DHT22;11833;52.554;13.554;2023-04-01T10:48:20;10.00;99.90
23323;DHT22;11833;52.554;13.554;2023-04-01T10:51:25;10.00;99.90
23323;DHT22;11833;52.554;13.554;2023-04-01T11:10:08;10.20;99.90
23323;DHT22;11833;52.554;13.554;2023-04-01T11:33:08;10.30;99.90
23323;DHT22;11833;52.554;13.554;2023-04-01T11:38:52;10.30;99.90
23323;DHT22;11833;52.554;13.554;2023-04-01T11:50:58;10.00;99.90
23323;DHT22;11833;52.554;13.554;2023-04-01T11:59:45;10.00;99.90
23323;DHT22;11833;52.554;13.554;2023-04-01T12:05:26;9.90;99.90
23323;DHT22;11833;52.554;13.554;2023-04-01T12:09:22;10.00;99.90
23323;DHT22;11833;52.554;13.554;2023-04-01T12:14:53;10.10;99.90
23323;DHT22;11833;52.554;13.554;2023-04-01T12:17:48;10.00;99.90
23323;DHT22;11833;52.554;13.554;2023-04-01T12:20:43;10.00;99.90
23323;DHT22;11833;52.554;13.554;2023-04-01T12:23:42;10.10;99.90
23323;DHT22;11833;52.554;13.554;2023-04-01T12:44:26;9.80;99.90
23323;DHT22;11833;52.554;13.554;2023-04-01T12:47:32;9.80;99.90
23323;DHT22;11833;52.554;13.554;2023-04-01T13:02:21;10.00;99.90
23323;DHT22;11833;52.554;13.554;2023-04-01T13:05:15;9.80;99.90
23323;DHT22;11833;52.554;13.554;2023-04-01T13:16:26;10.10;99.90
23323;DHT22;11833;52.554;13.554;2023-04-01T13:19:25;9.90;99.90
23323;DHT22;11833;52.554;13.554;2023-04-01T13:22:10;10.10;99.90
23323;DHT22;11833;52.554;13.554;2023-04-01T13:25:06;10.00;99.90
23323;DHT22;11833;52.554;13.554;2023-04-01T13:27:44;9.90;99.90
23323;DHT22;11833;52.554;13.554;2023-04-01T13:34:27;9.90;99.90
23323;DHT22;11833;52.554;13.554;2023-04-01T13:37:24;9.90;99.90
23323;DHT22;11833;52.554;13.554;2023-04-01T13:42:42;9.80;99.90
23323;DHT22;11833;52.554;13.554;2023-04-01T13:45:50;9.90;99.90
23323;DHT22;11833;52.554;13.554;2023-04-01T14:29:08;9.30;99.90
23323;DHT22;11833;52.554;13.554;2023-04-01T14:32:02;9.10;99.90
23323;DHT22;11833;52.554;13.554;2023-04-01T14:49:15;9.10;99.90
23323;DHT22;11833;52.554;13.554;2023-04-01T14:51:48;9.20;99.90
23323;DHT22;11833;52.554;13.554;2023-04-01T14:54:18;9.20;99.90
23323;DHT22;11833;52.554;13.554;2023-04-01T14:56:51;9.10;99.90
23323;DHT22;11833;52.554;13.554;2023-04-01T15:00:09;9.00;99.90
23323;DHT22;11833;52.554;13.554;2023-04-01T15:05:40;9.30;99.90
23323;DHT22;11833;52.554;13.554;2023-04-01T15:11:13;9.10;99.90
23323;DHT22;11833;52.554;13.554;2023-04-01T15:19:21;8.80;99.90
23323;DHT22;11833;52.554;13.554;2023-04-01T15:31:09;8.80;99.90
23323;DHT22;11833;52.554;13.554;2023-04-01T15:34:05;8.90;99.90
23323;DHT22;11833;52.554;13.554;2023-04-01T15:46:41;8.50;99.90
23323;DHT22;11833;52.554;13.554;2023-04-01T15:52:24;8.70;99.90
23323;DHT22;11833;52.554;13.554;2023-04-01T16:00:53;8.30;99.90
23323;DHT22;11833;52.554;13.554;2023-04-01T16:04:11;8.30;99.90
23323;DHT22;11833;52.554;13.554;2023-04-01T16:07:03;8.30;99.90
23323;DHT22;11833;52.554;13.554;2023-04-01T16:12:41;8.30;99.90
23323;DHT22;11833;52.554;13.554;2023-04-01T16:18:45;8.10;99.90
23323;DHT22;11833;52.554;13.554;2023-04-01T16:21:43;8.10;99.90
23323;DHT22;11833;52.554;13.554;2023-04-01T16:24:13;8.10;99.90
23323;DHT22;11833;52.554;13.554;2023-04-01T16:26:47;8.10;99.90
23323;DHT22;11833;52.554;13.554;2023-04-01T16:32:07;8.20;99.90
23323;DHT22;11833;52.554;13.554;2023-04-01T16:35:03;8.30;99.90
23323;DHT22;11833;52.554;13.554;2023-04-01T16:37:47;8.00;99.90
23323;DHT22;11833;52.554;13.554;2023-04-01T16:40:22;7.80;99.90
23323;DHT22;11833;52.554;13.554;2023-04-01T16:42:52;7.80;99.90
23323;DHT22;11833;52.554;13.554;2023-04-01T16:47:56;7.90;99.90
23323;DHT22;11833;52.554;13.554;2023-04-01T16:50:29;7.80;99.90
23323;DHT22;11833;52.554;13.554;2023-04-01T16:53:14;7.70;99.90
23323;DHT22;11833;52.554;13.554;2023-04-01T16:55:50;7.70;99.90
23323;DHT22;11833;52.554;13.554;2023-04-01T16:58:26;7.70;99.90
23323;DHT22;11833;52.554;13.554;2023-04-01T17:01:20;7.90;99.90
23323;DHT22;11833;52.554;13.554;2023-04-01T17:03:52;7.90;99.90
23323;DHT22;11833;52.554;13.554;2023-04-01T17:06:25;7.80;99.90
23323;DHT22;11833;52.554;13.554;2023-04-01T17:20:16;7.60;99.90
23323;DHT22;11833;52.554;13.554;2023-04-01T17:38:54;7.10;99.90
23323;DHT22;11833;52.554;13.554;2023-04-01T17:47:17;7.00;99.90
23323;DHT22;11833;52.554;13.554;2023-04-01T17:49:53;7.00;99.90
23323;DHT22;11833;52.554;13.554;2023-04-01T17:52:24;6.90;99.90
23323;DHT22;11833;52.554;13.554;2023-04-01T18:08:34;6.80;99.90
23323;DHT22;11833;52.554;13.554;2023-04-01T18:23:38;6.80;99.90
23323;DHT22;11833;52.554;13.554;2023-04-01T18:31:44;6.50;99.90
23323;DHT22;11833;52.554;13.554;2023-04-01T18:34:16;6.90;99.90
23323;DHT22;11833;52.554;13.554;2023-04-01T18:37:01;6.80;99.90
23323;DHT22;11833;52.554;13.554;2023-04-01T18:39:42;6.70;99.90
23323;DHT22;11833;52.554;13.554;2023-04-01T18:44:54;6.50;99.90
23323;DHT22;11833;52.554;13.554;2023-04-01T18:52:49;6.60;99.90
23323;DHT22;11833;52.554;13.554;2023-04-01T19:03:58;6.30;99.90
23323;DHT22;11833;52.554;13.554;2023-04-01T19:06:55;6.40;99.90
23323;DHT22;11833;52.554;13.554;2023-04-01T19:09:22;6.40;99.90
23323;DHT22;11833;52.554;13.554;2023-04-01T19:17:35;6.40;99.90
23323;DHT22;11833;52.554;13.554;2023-04-01T19:28:02;6.30;99.90
23323;DHT22;11833;52.554;13.554;2023-04-01T19:33:15;6.10;99.90
23323;DHT22;11833;52.554;13.554;2023-04-01T19:38:55;6.20;99.90
23323;DHT22;11833;52.554;13.554;2023-04-01T19:41:55;6.00;99.90
23323;DHT22;11833;52.554;13.554;2023-04-01T19:45:08;6.20;99.90
23323;DHT22;11833;52.554;13.554;2023-04-01T19:53:29;6.00;99.90
23323;DHT22;11833;52.554;13.554;2023-04-01T20:01:39;6.10;99.90
23323;DHT22;11833;52.554;13.554;2023-04-01T20:04:14;6.10;99.90
23323;DHT22;11833;52.554;13.554;2023-04-01T20:09:45;6.10;99.90
23323;DHT22;11833;52.554;13.554;2023-04-01T20:12:47;5.90;99.90
23323;DHT22;11833;52.554;13.554;2023-04-01T20:15:35;5.80;99.90
23323;DHT22;11833;52.554;13.554;2023-04-01T20:18:02;5.90;99.90
23323;DHT22;11833;52.554;13.554;2023-04-01T20:20:34;5.90;99.90
23323;DHT22;11833;52.554;13.554;2023-04-01T20:25:54;5.70;99.90
23323;DHT22;11833;52.554;13.554;2023-04-01T20:28:32;5.80;99.90
23323;DHT22;11833;52.554;13.554;2023-04-01T20:31:31;5.80;99.90
23323;DHT22;11833;52.554;13.554;2023-04-01T20:37:20;5.80;99.90
23323;DHT22;11833;52.554;13.554;2023-04-01T20:50:51;5.60;99.90
23323;DHT22;11833;52.554;13.554;2023-04-01T20:56:00;5.50;99.90
23323;DHT22;11833;52.554;13.554;2023-04-01T21:06:59;5.70;99.90
23323;DHT22;11833;52.554;13.554;2023-04-01T21:09:44;5.80;99.90
23323;DHT22;11833;52.554;13.554;2023-04-01T21:18:39;5.70;99.90
23323;DHT22;11833;52.554;13.554;2023-04-01T21:24:01;5.40;99.90
23323;DHT22;11833;52.554;13.554;2023-04-01T21:26:53;5.40;99.90
23323;DHT22;11833;52.554;13.554;2023-04-01T21:32:05;5.20;99.90
23323;DHT22;11833;52.554;13.554;2023-04-01T21:43:03;5.50;99.90
23323;DHT22;11833;52.554;13.554;2023-04-01T21:45:37;5.40;99.90
23323;DHT22;11833;52.554;13.554;2023-04-01T21:51:18;5.20;99.90
